Time;durP1;ratioP1;P1;durP2;ratioP2;P2;SDS_P1;SDS_P2;PMS_P1;PMS_P2;Temp;Humidity;BMP_temperature;BMP_pressure;BME280_temperature;BME280_humidity;BME280_pressure;Samples;Min_cycle;Max_cycle;Signal;HPM_P1;HPM_P2
2022/07/07 00:00:52;;;;;;;;;;;;;;;16.08;56.86;100437.97;4952693;28;1102;-55
2022/07/07 00:03:17;;;;;;;;;;;;;;;16.12;56.79;100435.47;4961573;28;960;-54
2022/07/07 00:05:42;;;;;;;;;;;;;;;16.16;56.77;100426.44;4963672;28;1026;-54
2022/07/07 00:08:08;;;;;;;;;;;;;;;16.12;56.67;100429.97;4958161;29;964;-54
2022/07/07 00:10:33;;;;;;;;;;;;;;;16.11;56.64;100439.34;4962087;28;1003;-54
2022/07/07 00:12:59;;;;;;;;;;;;;;;16.13;56.67;100432.47;4957784;29;1089;-54
2022/07/07 00:15:24;;;;;;;;;;;;;;;17.06;57.44;100432.84;4957813;29;1976;-55
2022/07/07 00:17:50;;;;;;;;;;;;;;;16.87;58.10;100429.94;4957857;29;1242;-55
2022/07/07 00:20:15;;;;;;;;;;;;;;;16.58;58.41;100421.59;4957923;29;1267;-55
2022/07/07 00:22:41;;;;;;;;;;;;;;;16.45;58.16;100422.19;4957365;29;1062;-55
2022/07/07 00:25:06;;;;;;;;;;;;;;;16.43;57.82;100422.47;4957756;29;1220;-55
2022/07/07 00:27:32;;;;;;;;;;;;;;;16.35;57.65;100414.81;4963782;28;1007;-54
2022/07/07 00:29:57;;;;;;;;;;;;;;;16.35;57.20;100423.88;4957561;29;1007;-55
2022/07/07 00:32:23;;;;;;;;;;;;;;;16.32;57.36;100423.63;4957643;29;1018;-55
2022/07/07 00:34:48;;;;;;;;;;;;;;;16.30;57.31;100415.69;4957615;29;1910;-55
2022/07/07 00:37:14;;;;;;;;;;;;;;;16.28;56.93;100417.06;4958124;29;1168;-55
2022/07/07 00:39:39;;;;;;;;;;;;;;;16.29;57.13;100416.78;4957014;29;1078;-54
2022/07/07 00:42:05;;;;;;;;;;;;;;;16.22;57.02;100419.81;4957407;29;1153;-54
2022/07/07 00:44:30;;;;;;;;;;;;;;;16.21;57.05;100414.59;4957637;29;995;-54
2022/07/07 00:46:56;;;;;;;;;;;;;;;16.19;56.92;100419.56;4957197;29;1117;-54
2022/07/07 00:49:21;;;;;;;;;;;;;;;16.21;57.05;100426.38;4957405;28;1066;-54
2022/07/07 00:51:47;;;;;;;;;;;;;;;16.20;56.91;100426.66;4960762;28;968;-56
2022/07/07 00:54:12;;;;;;;;;;;;;;;16.16;56.80;100431.06;4960922;29;1959;-56
2022/07/07 00:56:38;;;;;;;;;;;;;;;16.11;56.79;100425.63;4961346;29;1003;-56
2022/07/07 00:59:06;;;;;;;;;;;;;;;16.15;56.86;100423.97;4961254;29;999;-55
2022/07/07 01:01:32;;;;;;;;;;;;;;;16.10;56.77;100424.78;4960629;29;1137;-56
2022/07/07 01:03:58;;;;;;;;;;;;;;;16.12;57.04;100429.97;4943771;29;976;-56
2022/07/07 01:06:24;;;;;;;;;;;;;;;16.08;57.01;100430.53;4961085;29;1050;-56
2022/07/07 01:08:51;;;;;;;;;;;;;;;16.10;56.75;100432.19;4960694;29;1046;-56
2022/07/07 01:11:16;;;;;;;;;;;;;;;16.08;56.80;100424.25;4947863;29;1007;-55
2022/07/07 01:13:42;;;;;;;;;;;;;;;16.04;56.76;100418.47;4960898;29;1010;-55
2022/07/07 01:16:07;;;;;;;;;;;;;;;16.09;56.91;100423.16;4959919;29;1910;-55
2022/07/07 01:18:32;;;;;;;;;;;;;;;16.04;56.83;100414.94;4960810;29;1144;-56
2022/07/07 01:20:58;;;;;;;;;;;;;;;16.06;56.89;100410.81;4960957;29;1007;-56
2022/07/07 01:23:23;;;;;;;;;;;;;;;16.05;56.96;100417.41;4944319;29;1161;-56
2022/07/07 01:25:49;;;;;;;;;;;;;;;16.05;56.94;100408.34;4943527;29;1091;-55
2022/07/07 01:28:14;;;;;;;;;;;;;;;16.05;57.05;100419.31;4961497;28;963;-55
2022/07/07 01:30:39;;;;;;;;;;;;;;;17.21;57.29;100417.41;4964703;28;1019;-55
2022/07/07 01:33:05;;;;;;;;;;;;;;;16.92;58.48;100420.88;4960213;29;1086;-56
2022/07/07 01:35:30;;;;;;;;;;;;;;;16.64;58.35;100420.44;4960550;29;1983;-55
2022/07/07 01:37:56;;;;;;;;;;;;;;;16.55;58.05;100430.38;4960097;29;1077;-55
2022/07/07 01:40:21;;;;;;;;;;;;;;;16.44;57.83;100426.88;4962312;28;1141;-55
2022/07/07 01:42:47;;;;;;;;;;;;;;;16.46;57.53;100430.13;4960457;29;1034;-55
2022/07/07 01:45:12;;;;;;;;;;;;;;;16.42;57.27;100438.13;4961636;28;1055;-55
2022/07/07 01:47:37;;;;;;;;;;;;;;;16.32;57.43;100429.13;4960742;29;1137;-55
2022/07/07 01:50:04;;;;;;;;;;;;;;;16.29;57.59;100427.75;4959977;29;1220;-55
2022/07/07 01:52:30;;;;;;;;;;;;;;;16.29;57.27;100427.75;4960347;28;1019;-55
2022/07/07 01:54:55;;;;;;;;;;;;;;;16.25;57.05;100426.66;4963777;28;1969;-55
2022/07/07 01:57:21;;;;;;;;;;;;;;;16.28;57.03;100445.31;4960214;29;1062;-55
2022/07/07 01:59:46;;;;;;;;;;;;;;;16.26;56.94;100428.31;4960146;29;1184;-55
2022/07/07 02:02:13;;;;;;;;;;;;;;;16.23;56.97;100426.94;4959424;28;1003;-55
2022/07/07 02:04:38;;;;;;;;;;;;;;;16.20;57.18;100429.41;4962061;28;960;-56
2022/07/07 02:07:04;;;;;;;;;;;;;;;16.22;56.77;100429.97;4962389;28;1015;-55
2022/07/07 02:09:29;;;;;;;;;;;;;;;16.19;57.03;100422.31;4959796;29;1050;-55
2022/07/07 02:11:55;;;;;;;;;;;;;;;16.15;56.77;100424.78;4960148;29;1134;-56
2022/07/07 02:14:20;;;;;;;;;;;;;;;16.13;56.73;100420.66;4959802;29;2025;-55
2022/07/07 02:16:46;;;;;;;;;;;;;;;16.10;56.83;100416.53;4961363;28;1212;-56
2022/07/07 02:19:11;;;;;;;;;;;;;;;16.11;56.74;100425.63;4959876;29;1050;-56
2022/07/07 02:21:36;;;;;;;;;;;;;;;16.10;57.00;100427.53;4959735;29;1157;-56
2022/07/07 02:24:02;;;;;;;;;;;;;;;16.06;56.92;100427.28;4959659;29;1014;-57
2022/07/07 02:26:27;;;;;;;;;;;;;;;16.07;57.06;100436.31;4960096;28;1094;-56
2022/07/07 02:28:53;;;;;;;;;;;;;;;17.35;57.77;100434.03;4964853;28;999;-56
2022/07/07 02:31:18;;;;;;;;;;;;;;;16.97;58.56;100440.06;4959415;29;1007;-56
2022/07/07 02:33:45;;;;;;;;;;;;;;;16.71;58.34;100439.38;4959458;29;1181;-56
2022/07/07 02:36:10;;;;;;;;;;;;;;;16.57;58.03;100445.47;4953012;29;1993;-56
2022/07/07 02:38:36;;;;;;;;;;;;;;;16.50;57.78;100449.63;4959256;29;1002;-56
2022/07/07 02:41:02;;;;;;;;;;;;;;;16.47;57.54;100447.44;4959536;29;1007;-55
2022/07/07 02:43:27;;;;;;;;;;;;;;;16.42;57.36;100440.88;4959202;29;1081;-55
2022/07/07 02:45:53;;;;;;;;;;;;;;;16.36;57.43;100441.97;4959040;29;1010;-55
2022/07/07 02:48:22;;;;;;;;;;;;;;;16.37;57.31;100443.63;4959546;29;1094;-55
2022/07/07 02:50:47;;;;;;;;;;;;;;;16.32;57.11;100440.09;4958867;29;1157;-56
2022/07/07 02:53:13;;;;;;;;;;;;;;;16.29;57.40;100444.22;4958726;29;1007;-55
2022/07/07 02:55:38;;;;;;;;;;;;;;;16.29;57.10;100446.13;4959221;29;2055;-55
2022/07/07 02:58:04;;;;;;;;;;;;;;;16.25;57.05;100437.63;4959327;29;1248;-55
2022/07/07 03:00:33;;;;;;;;;;;;;;;16.19;57.29;100430.53;4958914;28;924;-55
2022/07/07 03:02:59;;;;;;;;;;;;;;;16.20;57.16;100440.38;4948352;29;1020;-55
2022/07/07 03:05:24;;;;;;;;;;;;;;;16.17;57.05;100438.19;4958641;28;967;-55
2022/07/07 03:07:50;;;;;;;;;;;;;;;16.13;57.12;100442.59;4958692;29;1097;-55
2022/07/07 03:10:15;;;;;;;;;;;;;;;16.16;57.04;100444.78;4958906;29;976;-55
2022/07/07 03:12:41;;;;;;;;;;;;;;;16.12;57.15;100439.06;4958448;28;1078;-55
2022/07/07 03:15:07;;;;;;;;;;;;;;;16.12;57.32;100450.03;4960452;28;1902;-55
2022/07/07 03:17:32;;;;;;;;;;;;;;;16.17;56.91;100454.66;4958769;29;1023;-58
2022/07/07 03:19:57;;;;;;;;;;;;;;;16.12;57.12;100452.75;4958730;29;1169;-57
2022/07/07 03:22:23;;;;;;;;;;;;;;;16.12;57.02;100449.19;4958366;29;979;-57
2022/07/07 03:24:48;;;;;;;;;;;;;;;16.10;56.81;100465.09;4958383;29;1165;-59
2022/07/07 03:27:14;;;;;;;;;;;;;;;16.12;56.74;100465.63;4958685;29;975;-57
2022/07/07 03:29:39;;;;;;;;;;;;;;;16.06;57.15;100462.94;4958137;29;998;-57
2022/07/07 03:32:05;;;;;;;;;;;;;;;16.19;57.36;100463.44;4958181;28;1220;-58
2022/07/07 03:34:31;;;;;;;;;;;;;;;17.47;57.60;100461.16;4960111;28;1971;-57
2022/07/07 03:36:56;;;;;;;;;;;;;;;16.86;58.78;100458.50;4969798;28;1138;-57
2022/07/07 03:39:22;;;;;;;;;;;;;;;16.63;58.57;100461.91;4959376;28;1003;-56
2022/07/07 03:41:47;;;;;;;;;;;;;;;16.57;57.85;100469.34;4958076;29;1026;-57
2022/07/07 03:44:13;;;;;;;;;;;;;;;16.46;58.03;100462.25;4958064;29;1176;-57
2022/07/07 03:46:38;;;;;;;;;;;;;;;16.43;57.68;100466.38;4958205;28;1151;-57
2022/07/07 03:49:04;;;;;;;;;;;;;;;16.37;57.61;100462.84;4961574;28;1231;-57
2022/07/07 03:51:29;;;;;;;;;;;;;;;16.36;57.58;100458.44;4964566;28;994;-57
2022/07/07 03:53:54;;;;;;;;;;;;;;;16.32;57.29;100456.56;4961883;28;1907;-58
2022/07/07 03:56:20;;;;;;;;;;;;;;;16.34;57.30;100460.66;4958507;28;1141;-61
2022/07/07 03:58:45;;;;;;;;;;;;;;;16.23;57.54;100459.88;4957308;28;1248;-59
2022/07/07 04:01:11;;;;;;;;;;;;;;;16.30;56.90;100454.09;4964897;28;983;-60
2022/07/07 04:03:37;;;;;;;;;;;;;;;16.30;56.85;100453.25;4957473;28;1042;-61
2022/07/07 04:06:03;;;;;;;;;;;;;;;16.18;57.28;100456.31;4961956;28;1279;-60
2022/07/07 04:08:29;;;;;;;;;;;;;;;16.20;57.26;100460.44;4957617;28;1058;-60
2022/07/07 04:10:54;;;;;;;;;;;;;;;16.20;57.18;100454.94;4957823;28;2265;-60
2022/07/07 04:13:20;;;;;;;;;;;;;;;16.20;57.23;100460.44;4953614;28;2034;-61
2022/07/07 04:15:45;;;;;;;;;;;;;;;16.14;57.37;100466.19;4946034;29;1910;-60
2022/07/07 04:18:11;;;;;;;;;;;;;;;16.15;57.36;100473.34;4960485;28;2165;-60
2022/07/07 04:20:36;;;;;;;;;;;;;;;16.14;57.00;100471.69;4954402;28;1971;-61
2022/07/07 04:23:02;;;;;;;;;;;;;;;16.14;57.00;100471.69;4953347;28;1740;-61
2022/07/07 04:25:27;;;;;;;;;;;;;;;16.15;57.04;100481.56;4958416;28;2237;-61
2022/07/07 04:27:53;;;;;;;;;;;;;;;16.14;56.83;100488.16;4964107;28;1137;-60
2022/07/07 04:30:18;;;;;;;;;;;;;;;16.09;57.22;100491.72;4961342;28;891;-60
2022/07/07 04:32:43;;;;;;;;;;;;;;;16.09;56.98;100497.22;4962106;28;1049;-60
2022/07/07 04:35:09;;;;;;;;;;;;;;;16.06;56.96;100514.19;4962541;28;1963;-60
2022/07/07 04:37:35;;;;;;;;;;;;;;;16.03;57.16;100512.00;4961380;29;1038;-60
2022/07/07 04:40:00;;;;;;;;;;;;;;;16.06;57.06;100508.72;4960934;28;975;-60
2022/07/07 04:42:26;;;;;;;;;;;;;;;16.07;57.13;100519.44;4961102;29;1042;-60
2022/07/07 04:44:51;;;;;;;;;;;;;;;16.07;57.03;100518.59;4961625;29;1002;-58
2022/07/07 04:47:17;;;;;;;;;;;;;;;16.04;56.93;100509.00;4961493;29;1002;-60
2022/07/07 04:49:42;;;;;;;;;;;;;;;16.05;57.31;100524.34;4961410;29;1117;-59
2022/07/07 04:52:08;;;;;;;;;;;;;;;16.03;57.20;100514.75;4960885;28;1030;-60
2022/07/07 04:54:33;;;;;;;;;;;;;;;16.00;56.99;100505.16;4960315;28;1985;-60
2022/07/07 04:56:58;;;;;;;;;;;;;;;16.02;56.91;100507.63;4946487;28;2746;-62
2022/07/07 04:59:24;;;;;;;;;;;;;;;16.01;57.05;100516.97;4960691;28;1007;-62
2022/07/07 05:01:49;;;;;;;;;;;;;;;16.00;57.07;100516.13;4961103;29;1090;-63
2022/07/07 05:04:15;;;;;;;;;;;;;;;15.99;56.79;100517.25;4960799;28;975;-62
2022/07/07 05:06:40;;;;;;;;;;;;;;;15.97;56.93;100516.69;4960569;28;1145;-62
2022/07/07 05:09:05;;;;;;;;;;;;;;;16.03;57.19;100510.13;4961038;29;1066;-62
2022/07/07 05:11:31;;;;;;;;;;;;;;;17.33;57.42;100518.69;4960997;28;1176;-63
2022/07/07 05:13:56;;;;;;;;;;;;;;;16.95;58.45;100508.19;4962559;28;1007;-63
2022/07/07 05:16:22;;;;;;;;;;;;;;;16.65;58.68;100517.34;4961201;28;1902;-62
2022/07/07 05:18:47;;;;;;;;;;;;;;;16.52;58.37;100510.53;4960977;28;905;-63
2022/07/07 05:21:13;;;;;;;;;;;;;;;16.48;58.06;100523.16;4965035;28;1185;-63
2022/07/07 05:23:38;;;;;;;;;;;;;;;16.43;58.07;100524.81;4953268;29;998;-64
2022/07/07 05:26:04;;;;;;;;;;;;;;;16.35;57.77;100527.31;4954579;28;2635;-63
2022/07/07 05:28:30;;;;;;;;;;;;;;;16.32;57.46;100523.22;4959961;29;979;-63
2022/07/07 05:30:55;;;;;;;;;;;;;;;16.28;57.48;100516.63;4960802;28;1133;-63
2022/07/07 05:33:21;;;;;;;;;;;;;;;16.29;57.50;100526.53;4963631;28;959;-63
2022/07/07 05:35:46;;;;;;;;;;;;;;;16.24;57.42;100523.78;4960750;28;1910;-63
2022/07/07 05:38:12;;;;;;;;;;;;;;;16.22;57.31;100531.47;4963949;28;1003;-62
2022/07/07 05:40:37;;;;;;;;;;;;;;;16.22;57.45;100532.28;4960181;29;1015;-63
2022/07/07 05:43:03;;;;;;;;;;;;;;;16.22;57.32;100534.22;4958899;28;952;-63
2022/07/07 05:45:29;;;;;;;;;;;;;;;16.20;57.27;100530.91;4960568;28;1185;-63
2022/07/07 05:47:54;;;;;;;;;;;;;;;16.20;57.07;100536.41;4959951;29;991;-63
2022/07/07 05:50:19;;;;;;;;;;;;;;;16.17;57.13;100526.81;4960374;28;1157;-63
2022/07/07 05:52:45;;;;;;;;;;;;;;;16.17;57.02;100529.56;4960331;28;1042;-62
2022/07/07 05:55:10;;;;;;;;;;;;;;;17.94;53.51;100537.50;4960060;29;1975;-61
2022/07/07 05:57:36;;;;;;;;;;;;;;;16.78;55.12;100541.47;4962700;28;2330;-61
2022/07/07 06:00:01;;;;;;;;;;;;;;;18.35;53.06;100544.53;4960349;29;1081;-61
2022/07/07 06:02:37;;;;;;;;;;;;;;;16.05;58.79;100543.56;4963816;28;1011;-57
2022/07/07 06:05:02;;;;;;;;;;;;;;;16.02;57.06;100546.84;4959641;29;1002;-66
2022/07/07 06:07:28;;;;;;;;;;;;;;;17.99;55.06;100546.81;4954251;28;971;-61
2022/07/07 06:09:53;;;;;;;;;;;;;;;17.20;55.24;100551.19;4958743;29;1209;-57
2022/07/07 06:12:19;;;;;;;;;;;;;;;17.06;53.68;100564.72;4959967;28;1145;-64
2022/07/07 06:14:44;;;;;;;;;;;;;;;16.99;53.94;100557.91;4959894;29;1997;-59
2022/07/07 06:17:10;;;;;;;;;;;;;;;17.65;55.24;100562.19;4959771;29;1018;-57
2022/07/07 06:19:35;;;;;;;;;;;;;;;17.31;54.33;100559.41;4958967;29;1209;-57
2022/07/07 06:22:01;;;;;;;;;;;;;;;17.07;53.08;100552.63;4963613;28;1062;-61
2022/07/07 06:24:37;;;;;;;;;;;;;;;17.00;51.99;100559.53;4940386;29;1213;-62
2022/07/07 06:27:05;;;;;;;;;;;;;;;16.99;51.15;100549.66;4959480;28;2865;-60
2022/07/07 06:29:33;;;;;;;;;;;;;;;17.58;52.66;100557.00;4958464;28;1181;-61
2022/07/07 06:32:01;;;;;;;;;;;;;;;17.48;53.23;100559.00;4958838;29;995;-60
2022/07/07 06:34:26;;;;;;;;;;;;;;;17.18;52.37;100561.66;4959424;28;1902;-59
2022/07/07 06:36:53;;;;;;;;;;;;;;;17.08;51.68;100559.78;4948604;28;991;-57
2022/07/07 06:39:19;;;;;;;;;;;;;;;18.30;53.00;100566.63;4941086;29;1135;-61
2022/07/07 06:41:47;;;;;;;;;;;;;;;17.61;52.79;100564.69;4958811;28;1025;-57
2022/07/07 06:44:13;;;;;;;;;;;;;;;17.48;51.79;100564.50;4946408;29;863;-63
2022/07/07 06:46:42;;;;;;;;;;;;;;;17.28;50.93;100558.84;4959095;28;1118;-60
2022/07/07 06:49:09;;;;;;;;;;;;;;;17.22;50.67;100567.38;4957453;28;1208;-61
2022/07/07 06:51:34;;;;;;;;;;;;;;;17.10;50.32;100565.78;4958418;28;1094;-60
2022/07/07 06:54:00;;;;;;;;;;;;;;;17.17;49.80;100564.69;4958120;29;987;-61
2022/07/07 06:56:25;;;;;;;;;;;;;;;18.23;51.66;100571.63;4958480;29;2469;-59
2022/07/07 06:58:51;;;;;;;;;;;;;;;17.57;51.79;100563.63;4945863;29;1367;-57
2022/07/07 07:01:17;;;;;;;;;;;;;;;17.39;51.39;100573.34;4944615;28;1178;-58
2022/07/07 07:03:43;;;;;;;;;;;;;;;17.39;50.45;100572.50;4951921;28;1130;-57
2022/07/07 07:06:08;;;;;;;;;;;;;;;17.29;49.72;100570.66;4973507;28;1519;-57
2022/07/07 07:08:35;;;;;;;;;;;;;;;17.21;49.70;100569.31;4962843;28;1098;-57
2022/07/07 07:11:01;;;;;;;;;;;;;;;17.24;49.25;100565.19;4962960;28;1110;-56
2022/07/07 07:13:26;;;;;;;;;;;;;;;17.26;49.08;100569.31;4958496;28;1031;-58
2022/07/07 07:15:52;;;;;;;;;;;;;;;17.21;49.06;100565.75;4941008;29;1906;-61
2022/07/07 07:18:18;;;;;;;;;;;;;;;17.21;48.87;100565.75;4958505;28;991;-57
2022/07/07 07:20:43;;;;;;;;;;;;;;;18.01;50.44;100572.94;4964026;28;919;-58
2022/07/07 07:23:09;;;;;;;;;;;;;;;17.61;51.13;100566.59;4957324;28;1026;-57
2022/07/07 07:25:34;;;;;;;;;;;;;;;17.52;50.41;100569.16;4958059;28;2608;-58
2022/07/07 07:28:00;;;;;;;;;;;;;;;17.42;49.74;100566.47;4958019;28;967;-57
2022/07/07 07:30:25;;;;;;;;;;;;;;;17.29;49.70;100559.66;4958194;29;983;-61
2022/07/07 07:32:51;;;;;;;;;;;;;;;17.28;49.31;100563.53;4956672;29;1334;-59
2022/07/07 07:35:16;;;;;;;;;;;;;;;17.34;49.09;100565.13;4957922;29;1910;-57
2022/07/07 07:37:41;;;;;;;;;;;;;;;17.28;48.92;100555.28;4957804;28;1023;-57
2022/07/07 07:40:07;;;;;;;;;;;;;;;17.22;48.75;100570.13;4957644;28;1018;-57
2022/07/07 07:42:33;;;;;;;;;;;;;;;17.21;48.69;100560.28;4959110;28;975;-55
2022/07/07 07:45:10;;;;;;;;;;;;;;;17.26;48.68;100568.47;4960866;28;999;-57
2022/07/07 07:47:42;;;;;;;;;;;;;;;17.20;48.45;100559.44;4950925;29;885;-55
2022/07/07 07:50:10;;;;;;;;;;;;;;;17.27;48.29;100550.88;4957602;28;1007;-56
2022/07/07 07:52:36;;;;;;;;;;;;;;;17.25;48.24;100558.56;4958379;28;995;-55
2022/07/07 07:55:01;;;;;;;;;;;;;;;17.29;47.99;100559.66;4957296;28;1967;-58
2022/07/07 07:57:27;;;;;;;;;;;;;;;17.26;48.10;100566.56;4955110;28;2140;-59
2022/07/07 07:59:52;;;;;;;;;;;;;;;17.18;48.29;100561.66;4956940;28;1121;-58
2022/07/07 08:02:17;;;;;;;;;;;;;;;17.20;48.09;100553.94;4948405;28;1098;-58
2022/07/07 08:04:43;;;;;;;;;;;;;;;17.23;47.76;100558.84;4953333;28;921;-58
2022/07/07 08:07:08;;;;;;;;;;;;;;;17.19;47.86;100557.78;4960048;28;1161;-59
2022/07/07 08:09:34;;;;;;;;;;;;;;;17.19;47.84;100554.22;4958593;28;1000;-58
2022/07/07 08:11:59;;;;;;;;;;;;;;;17.20;47.96;100555.88;4957361;29;1149;-58
2022/07/07 08:14:25;;;;;;;;;;;;;;;17.17;48.14;100551.75;4957634;29;1930;-59
2022/07/07 08:16:50;;;;;;;;;;;;;;;17.17;47.94;100556.44;4957383;28;1200;-58
2022/07/07 08:19:17;;;;;;;;;;;;;;;17.19;47.58;100551.47;4960162;28;979;-58
2022/07/07 08:21:47;;;;;;;;;;;;;;;17.17;47.81;100550.94;4962132;28;984;-58
2022/07/07 08:24:13;;;;;;;;;;;;;;;17.18;47.65;100560.81;4956803;29;1141;-58
2022/07/07 08:26:39;;;;;;;;;;;;;;;17.14;47.50;100565.22;4956707;29;2048;-58
2022/07/07 08:29:05;;;;;;;;;;;;;;;17.13;47.68;100553.44;4960458;28;1177;-58
2022/07/07 08:31:31;;;;;;;;;;;;;;;17.12;47.39;100556.47;4956675;29;1011;-59
2022/07/07 08:33:56;;;;;;;;;;;;;;;17.69;48.26;100555.00;4956883;28;1149;-58
2022/07/07 08:36:21;;;;;;;;;;;;;;;17.54;49.35;100564.16;4958298;28;1914;-58
2022/07/07 08:38:47;;;;;;;;;;;;;;;17.37;49.39;100572.78;4956964;29;1027;-57
2022/07/07 08:41:13;;;;;;;;;;;;;;;17.40;48.83;100569.50;4968976;28;1007;-56
2022/07/07 08:43:38;;;;;;;;;;;;;;;17.31;48.46;100562.94;4967008;28;1247;-60
2022/07/07 08:46:04;;;;;;;;;;;;;;;17.29;48.45;100567.91;4964552;28;1125;-57
2022/07/07 08:48:29;;;;;;;;;;;;;;;17.38;48.22;100568.94;4934936;29;979;-58
2022/07/07 08:50:55;;;;;;;;;;;;;;;17.27;48.29;100561.88;4956991;29;1027;-59
2022/07/07 08:53:20;;;;;;;;;;;;;;;17.28;48.15;100556.09;4957354;29;1010;-59
2022/07/07 08:55:46;;;;;;;;;;;;;;;17.25;47.96;100555.81;4940572;29;1975;-59
2022/07/07 08:58:11;;;;;;;;;;;;;;;17.31;47.48;100564.88;4959087;28;1204;-59
2022/07/07 09:00:36;;;;;;;;;;;;;;;17.22;47.83;100564.63;4956746;29;1070;-59
2022/07/07 09:03:07;;;;;;;;;;;;;;;17.26;47.78;100574.81;4956670;29;1101;-59
2022/07/07 09:05:38;;;;;;;;;;;;;;;17.28;47.65;100577.25;4956856;28;987;-59
2022/07/07 09:08:17;;;;;;;;;;;;;;;17.22;47.52;100570.97;4962551;28;1011;-59
2022/07/07 09:10:44;;;;;;;;;;;;;;;17.15;47.82;100555.88;4956217;28;1102;-58
2022/07/07 09:13:30;;;;;;;;;;;;;;;17.27;47.39;100564.63;4946742;29;1048;-59
2022/07/07 09:15:56;;;;;;;;;;;;;;;17.24;47.38;100563.25;4959789;29;1954;-59
2022/07/07 09:18:28;;;;;;;;;;;;;;;17.21;47.47;100560.28;4960231;29;1216;-58
2022/07/07 09:20:54;;;;;;;;;;;;;;;17.22;47.57;100553.66;4962011;28;897;-59
2022/07/07 09:23:19;;;;;;;;;;;;;;;17.25;47.24;100566.81;4960615;29;1209;-59
2022/07/07 09:25:45;;;;;;;;;;;;;;;17.22;47.76;100564.63;4959500;28;2385;-57
2022/07/07 09:28:10;;;;;;;;;;;;;;;17.23;47.42;100566.28;4942788;29;1154;-56
2022/07/07 09:30:37;;;;;;;;;;;;;;;17.24;47.46;100559.69;4965771;28;991;-56
2022/07/07 09:33:06;;;;;;;;;;;;;;;17.24;47.66;100571.50;4955234;28;1544;-56
2022/07/07 09:38:17;;;;;;;;;;;;;;;17.18;48.05;100566.31;4958294;29;1043;-59
2022/07/07 09:40:59;;;;;;;;;;;;;;;17.18;47.85;100563.56;4958588;29;1102;-62
2022/07/07 09:43:28;;;;;;;;;;;;;;;17.19;48.05;100567.97;4959761;28;1333;-57
2022/07/07 09:46:06;;;;;;;;;;;;;;;17.22;48.05;100557.25;4958327;29;912;-61
2022/07/07 09:48:32;;;;;;;;;;;;;;;17.22;47.99;100561.88;4959209;28;1007;-59
2022/07/07 09:51:24;;;;;;;;;;;;;;;17.25;48.35;100555.81;4959650;28;1234;-60
2022/07/07 09:53:52;;;;;;;;;;;;;;;17.27;48.08;100545.38;4956270;28;1901;-60
2022/07/07 09:56:28;;;;;;;;;;;;;;;17.29;48.06;100556.91;4962380;28;2070;-59
2022/07/07 09:58:53;;;;;;;;;;;;;;;17.30;48.26;100555.81;4959190;28;1069;-59
2022/07/07 10:01:24;;;;;;;;;;;;;;;17.28;47.94;100549.78;4959292;28;1162;-59
2022/07/07 10:03:51;;;;;;;;;;;;;;;17.41;47.79;100549.13;4958953;28;952;-60
2022/07/07 10:06:16;;;;;;;;;;;;;;;17.36;48.00;100549.19;4941932;29;1063;-65
2022/07/07 10:08:44;;;;;;;;;;;;;;;17.31;47.69;100548.41;4959263;28;1015;-56
2022/07/07 10:11:11;;;;;;;;;;;;;;;17.33;47.61;100557.97;4959075;28;1082;-57
2022/07/07 10:13:37;;;;;;;;;;;;;;;17.26;47.60;100551.97;4957670;29;1007;-56
2022/07/07 10:16:03;;;;;;;;;;;;;;;17.23;47.55;100556.09;4944445;29;1982;-58
2022/07/07 10:18:28;;;;;;;;;;;;;;;17.27;47.74;100548.13;4959439;28;1279;-56
2022/07/07 10:20:54;;;;;;;;;;;;;;;17.27;47.71;100550.88;4958766;28;1075;-54
2022/07/07 10:23:19;;;;;;;;;;;;;;;17.30;47.55;100544.81;4957360;28;1129;-53
2022/07/07 10:25:58;;;;;;;;;;;;;;;17.23;47.54;100549.81;4941516;29;2022;-55
2022/07/07 10:28:44;;;;;;;;;;;;;;;17.28;47.32;100541.53;4959471;28;1027;-58
2022/07/07 10:31:28;;;;;;;;;;;;;;;17.24;47.67;100540.47;4963140;28;1022;-56
2022/07/07 10:34:01;;;;;;;;;;;;;;;17.28;47.35;100544.28;4963310;28;1125;-56
2022/07/07 10:36:27;;;;;;;;;;;;;;;17.28;47.33;100544.28;4964508;28;1981;-53
2022/07/07 10:38:53;;;;;;;;;;;;;;;17.27;47.56;100545.38;4957356;29;979;-56
2022/07/07 10:41:23;;;;;;;;;;;;;;;17.18;47.63;100525.94;4941613;29;1438;-54
2022/07/07 10:43:48;;;;;;;;;;;;;;;17.27;47.56;100526.97;4953826;28;1066;-58
2022/07/07 10:46:14;;;;;;;;;;;;;;;17.22;47.33;100528.91;4940523;29;988;-59
2022/07/07 10:48:41;;;;;;;;;;;;;;;17.24;47.45;100524.78;4961483;28;1354;-57
2022/07/07 10:51:20;;;;;;;;;;;;;;;17.25;47.54;100522.84;4958480;28;1121;-56
2022/07/07 10:53:55;;;;;;;;;;;;;;;17.31;47.40;100515.44;4958593;28;1126;-57
2022/07/07 10:56:22;;;;;;;;;;;;;;;17.34;47.19;100523.09;4955193;28;2541;-58
2022/07/07 10:58:57;;;;;;;;;;;;;;;17.26;47.46;100514.34;4958593;28;948;-56
2022/07/07 11:01:24;;;;;;;;;;;;;;;17.24;47.39;100526.72;4960610;28;1035;-56
2022/07/07 11:03:49;;;;;;;;;;;;;;;17.27;47.53;100528.91;4962259;28;1067;-57
2022/07/07 11:06:15;;;;;;;;;;;;;;;17.26;47.44;100524.50;4970530;28;1118;-59
2022/07/07 11:08:40;;;;;;;;;;;;;;;17.30;47.22;100530.25;4963244;28;1189;-57
2022/07/07 11:11:06;;;;;;;;;;;;;;;17.22;47.59;100527.00;4974163;28;1188;-58
2022/07/07 11:13:38;;;;;;;;;;;;;;;17.36;47.47;100531.84;4965625;28;1007;-57
2022/07/07 11:16:11;;;;;;;;;;;;;;;17.31;47.65;100534.66;4959499;28;1902;-57
2022/07/07 11:18:36;;;;;;;;;;;;;;;17.25;48.17;100540.19;4959370;28;1067;-59
2022/07/07 11:21:03;;;;;;;;;;;;;;;17.28;48.07;100533.28;4961536;28;1061;-58
2022/07/07 11:23:51;;;;;;;;;;;;;;;17.26;48.10;100551.97;4963776;28;1039;-57
2022/07/07 11:26:17;;;;;;;;;;;;;;;17.32;47.98;100537.13;4957514;28;2549;-56
2022/07/07 11:28:43;;;;;;;;;;;;;;;17.34;47.98;100547.81;4958347;28;1019;-56
2022/07/07 11:31:08;;;;;;;;;;;;;;;17.39;47.88;100551.38;4964122;28;1283;-56
2022/07/07 11:33:34;;;;;;;;;;;;;;;17.35;47.97;100544.78;4962595;28;1275;-58
2022/07/07 11:36:07;;;;;;;;;;;;;;;17.33;48.34;100541.50;4957838;28;1914;-58
2022/07/07 11:38:33;;;;;;;;;;;;;;;17.33;48.73;100536.00;4957943;28;856;-59
2022/07/07 11:40:58;;;;;;;;;;;;;;;17.44;49.16;100510.06;4963718;28;1114;-58
2022/07/07 11:43:24;;;;;;;;;;;;;;;14.92;55.14;100524.19;4956748;29;1090;-58
2022/07/07 11:45:49;;;;;;;;;;;;;;;17.52;53.09;100551.84;4950072;29;1086;-59
2022/07/07 11:48:15;;;;;;;;;;;;;;;17.39;52.30;100531.28;4956486;28;1122;-60
2022/07/07 11:50:40;;;;;;;;;;;;;;;17.40;51.11;100531.03;4953641;28;1311;-58
2022/07/07 11:53:06;;;;;;;;;;;;;;;17.50;50.84;100524.63;4961015;28;1081;-60
2022/07/07 11:55:31;;;;;;;;;;;;;;;17.55;50.23;100515.53;4962608;28;2550;-60
2022/07/07 11:57:58;;;;;;;;;;;;;;;17.50;49.95;100529.28;4954560;29;1000;-57
2022/07/07 12:00:24;;;;;;;;;;;;;;;17.52;49.20;100527.91;4961054;28;940;-58
2022/07/07 12:02:50;;;;;;;;;;;;;;;17.48;49.26;100531.53;4969506;28;1216;-61
2022/07/07 12:05:22;;;;;;;;;;;;;;;17.55;49.35;100521.84;4963339;28;983;-60
2022/07/07 12:07:54;;;;;;;;;;;;;;;17.56;49.20;100517.16;4964719;28;1012;-58
2022/07/07 12:10:23;;;;;;;;;;;;;;;17.59;49.51;100517.41;4961018;28;942;-60
2022/07/07 12:12:58;;;;;;;;;;;;;;;17.55;49.91;100518.28;4967202;28;1129;-62
2022/07/07 12:15:29;;;;;;;;;;;;;;;17.72;50.05;100521.41;4967508;28;1983;-62
2022/07/07 12:17:55;;;;;;;;;;;;;;;17.75;49.79;100522.78;4951232;29;955;-61
2022/07/07 12:20:21;;;;;;;;;;;;;;;17.76;49.61;100513.44;4957052;29;1232;-59
2022/07/07 12:22:55;;;;;;;;;;;;;;;17.73;49.13;100528.56;4964686;28;1201;-55
2022/07/07 12:25:21;;;;;;;;;;;;;;;17.71;48.84;100514.31;4951554;28;2077;-59
2022/07/07 12:27:53;;;;;;;;;;;;;;;16.22;52.38;100501.28;4956551;28;992;-61
2022/07/07 12:30:18;;;;;;;;;;;;;;;17.32;55.09;100503.31;4957481;29;1160;-57
2022/07/07 12:32:44;;;;;;;;;;;;;;;17.84;53.23;100504.56;4957234;29;959;-62
2022/07/07 12:35:24;;;;;;;;;;;;;;;15.03;60.99;100501.22;4965841;28;1914;-61
2022/07/07 12:37:50;;;;;;;;;;;;;;;18.10;55.43;100510.69;4965754;28;1097;-58
2022/07/07 12:40:15;;;;;;;;;;;;;;;16.27;57.74;100514.16;4945741;28;1072;-57
2022/07/07 12:42:45;;;;;;;;;;;;;;;16.75;58.95;100523.63;4957601;29;1122;-58
2022/07/07 12:45:14;;;;;;;;;;;;;;;17.73;54.92;100523.06;4956902;28;1113;-55
2022/07/07 12:47:46;;;;;;;;;;;;;;;17.68;53.17;100523.09;4964908;28;955;-56